Time;durP1;ratioP1;P1;durP2;ratioP2;P2;SDS_P1;SDS_P2;PMS_P1;PMS_P2;Temp;Humidity;BMP_temperature;BMP_pressure;BME280_temperature;BME280_humidity;BME280_pressure;Samples;Min_cycle;Max_cycle;Signal;HPM_P1;HPM_P2
2023/02/22 00:01:34;;;;;;;45.17;21.40;;;11.30;99.90;;;;;;6065449;23;92612;-79
2023/02/22 00:04:04;;;;;;;46.25;21.38;;;11.30;99.90;;;;;;6064571;23;96224;-78
2023/02/22 00:06:32;;;;;;;45.40;21.63;;;11.20;99.90;;;;;;6065395;23;92866;-78
2023/02/22 00:09:01;;;;;;;41.50;21.67;;;11.20;99.90;;;;;;6066305;23;92357;-78
2023/02/22 00:11:28;;;;;;;47.67;22.60;;;11.20;99.90;;;;;;6066860;23;92304;-78
2023/02/22 00:13:57;;;;;;;43.40;21.38;;;11.20;99.90;;;;;;6063258;23;98182;-79
2023/02/22 00:16:25;;;;;;;48.33;23.00;;;11.20;99.90;;;;;;6066312;23;95666;-79
2023/02/22 00:18:53;;;;;;;47.45;22.42;;;11.20;99.90;;;;;;6065463;23;92316;-79
2023/02/22 00:21:21;;;;;;;47.63;22.77;;;11.10;99.90;;;;;;6066961;23;92418;-78
2023/02/22 00:23:48;;;;;;;43.15;21.35;;;11.10;99.90;;;;;;6088901;23;107567;-78
2023/02/22 00:26:22;;;;;;;45.58;21.38;;;11.10;99.90;;;;;;6064483;23;96185;-78
2023/02/22 00:28:51;;;;;;;42.63;21.20;;;11.10;99.90;;;;;;6066935;23;92382;-78
2023/02/22 00:31:19;;;;;;;45.88;23.27;;;11.00;99.90;;;;;;6041187;23;91662;-79
2023/02/22 00:33:48;;;;;;;49.50;22.38;;;11.00;99.90;;;;;;6064837;23;95741;-79
2023/02/22 00:36:16;;;;;;;45.40;23.20;;;11.00;99.90;;;;;;6065130;23;95830;-78
2023/02/22 00:38:43;;;;;;;50.08;22.88;;;10.90;99.90;;;;;;6088135;23;94738;-78
2023/02/22 00:41:11;;;;;;;43.55;21.48;;;10.90;99.90;;;;;;6066895;23;92756;-78
2023/02/22 00:43:38;;;;;;;48.97;23.55;;;10.90;99.90;;;;;;6088985;23;95613;-78
2023/02/22 00:46:06;;;;;;;48.17;22.38;;;10.90;99.90;;;;;;6064857;23;95684;-79
2023/02/22 00:48:33;;;;;;;40.38;20.90;;;10.90;99.90;;;;;;6066751;23;92308;-78
2023/02/22 00:51:00;;;;;;;42.17;20.92;;;10.90;99.90;;;;;;6065100;23;92485;-78
2023/02/22 00:53:28;;;;;;;45.13;20.65;;;10.90;99.90;;;;;;6066552;23;93258;-78
2023/02/22 00:55:55;;;;;;;43.47;21.65;;;10.90;99.90;;;;;;6065239;23;95693;-78
2023/02/22 00:58:23;;;;;;;44.17;20.60;;;10.90;99.90;;;;;;6065365;23;92417;-79
2023/02/22 01:00:50;;;;;;;36.03;20.20;;;10.90;99.90;;;;;;6064383;23;92411;-78
2023/02/22 01:03:19;;;;;;;43.63;20.50;;;10.90;99.90;;;;;;6064741;23;96429;-78
2023/02/22 01:05:46;;;;;;;39.58;19.42;;;10.80;99.90;;;;;;6065974;23;95342;-79
2023/02/22 01:08:15;;;;;;;46.88;21.90;;;10.80;99.90;;;;;;6089049;23;92778;-78
2023/02/22 01:10:43;;;;;;;45.53;20.95;;;10.80;99.90;;;;;;6066501;23;92360;-78
2023/02/22 01:13:11;;;;;;;42.85;21.13;;;10.80;99.90;;;;;;6064399;23;95846;-78
2023/02/22 01:15:40;;;;;;;46.15;22.88;;;10.80;99.90;;;;;;6064478;23;95316;-78
2023/02/22 01:18:08;;;;;;;59.25;22.92;;;10.70;99.90;;;;;;6064731;23;92450;-78
2023/02/22 01:20:36;;;;;;;49.55;21.15;;;10.70;99.90;;;;;;6066620;23;91702;-78
2023/02/22 01:23:05;;;;;;;51.10;24.00;;;10.70;99.90;;;;;;6064275;23;95870;-78
2023/02/22 01:25:34;;;;;;;49.30;23.00;;;10.70;99.90;;;;;;6066155;23;92996;-78
2023/02/22 01:28:02;;;;;;;54.63;23.30;;;10.70;99.90;;;;;;6038879;23;94838;-78
2023/02/22 01:30:32;;;;;;;58.58;24.75;;;10.70;99.90;;;;;;6089075;23;92564;-78
2023/02/22 01:33:01;;;;;;;60.63;24.80;;;10.70;99.90;;;;;;6089542;23;95162;-78
2023/02/22 01:35:31;;;;;;;46.92;22.40;;;10.60;99.90;;;;;;6089255;23;95733;-78
2023/02/22 01:37:58;;;;;;;50.85;22.75;;;10.60;99.90;;;;;;6088921;23;93191;-78
2023/02/22 01:40:34;;;;;;;48.53;23.10;;;10.60;99.90;;;;;;6064410;23;92512;-79
2023/02/22 01:43:17;;;;;;;47.53;22.23;;;10.50;99.90;;;;;;6066112;23;93101;-78
2023/02/22 01:46:04;;;;;;;40.47;19.98;;;10.60;99.90;;;;;;6089394;23;95362;-78
2023/02/22 01:49:01;;;;;;;41.35;20.58;;;10.60;99.90;;;;;;6065050;23;92459;-78
2023/02/22 01:51:36;;;;;;;42.90;19.13;;;10.60;99.90;;;;;;6040600;23;92456;-78
2023/02/22 01:54:28;;;;;;;41.53;19.02;;;10.50;99.90;;;;;;6063179;23;98297;-78
2023/02/22 01:57:05;;;;;;;46.10;19.98;;;10.60;99.90;;;;;;6086544;23;95394;-78
2023/02/22 01:59:39;;;;;;;42.95;19.63;;;10.60;99.90;;;;;;6088595;23;92458;-78
2023/02/22 02:02:06;;;;;;;45.13;20.77;;;10.60;99.90;;;;;;6066637;23;92398;-78
2023/02/22 02:04:34;;;;;;;41.05;19.85;;;10.60;99.90;;;;;;6064494;23;95559;-78
2023/02/22 02:07:06;;;;;;;41.15;17.52;;;10.60;99.90;;;;;;6039881;23;95659;-78
2023/02/22 02:09:57;;;;;;;38.78;19.23;;;10.60;99.90;;;;;;6089171;23;92510;-78
2023/02/22 02:12:26;;;;;;;37.53;17.83;;;10.60;99.90;;;;;;6036933;23;91739;-78
2023/02/22 02:15:28;;;;;;;50.60;19.50;;;10.50;99.90;;;;;;6063571;23;95707;-79
2023/02/22 02:17:59;;;;;;;37.03;19.08;;;10.60;99.90;;;;;;6066297;23;93045;-79
2023/02/22 02:20:55;;;;;;;42.90;19.65;;;10.50;99.90;;;;;;6038890;23;95216;-79
2023/02/22 02:23:57;;;;;;;41.47;19.35;;;10.60;99.90;;;;;;6089228;23;92343;-78
2023/02/22 02:26:39;;;;;;;36.35;18.05;;;10.60;99.90;;;;;;6040599;23;96076;-78
2023/02/22 02:29:25;;;;;;;43.30;19.20;;;10.60;99.90;;;;;;6064490;23;95654;-78
2023/02/22 02:32:20;;;;;;;37.83;18.77;;;10.60;99.90;;;;;;6066216;23;92382;-78
2023/02/22 02:35:05;;;;;;;44.72;19.10;;;10.60;99.90;;;;;;6064386;23;92375;-78
2023/02/22 02:37:57;;;;;;;45.13;21.15;;;10.60;99.90;;;;;;6066305;23;93429;-78
2023/02/22 02:40:40;;;;;;;43.22;19.63;;;10.60;99.90;;;;;;6089233;23;94791;-78
2023/02/22 02:43:16;;;;;;;43.80;19.60;;;10.50;99.90;;;;;;6066105;23;92459;-79
2023/02/22 02:45:46;;;;;;;;;;;10.50;99.90;;;;;;6066618;23;92939;-79
2023/02/22 02:48:16;;;;;;;41.90;18.95;;;10.40;99.90;;;;;;6089337;23;98085;-78
2023/02/22 02:50:46;;;;;;;42.88;20.08;;;10.40;99.90;;;;;;6065861;23;95396;-78
2023/02/22 02:53:20;;;;;;;39.30;19.58;;;10.40;99.90;;;;;;6088999;23;92409;-79
2023/02/22 02:55:49;;;;;;;44.63;21.73;;;10.40;99.90;;;;;;6066088;23;92399;-78
2023/02/22 02:58:19;;;;;;;42.55;20.48;;;10.40;99.90;;;;;;6063552;23;108220;-78
2023/02/22 03:00:49;;;;;;;50.08;21.23;;;10.50;99.90;;;;;;6063849;23;96274;-78
2023/02/22 03:03:48;;;;;;;47.80;22.10;;;10.50;99.90;;;;;;6066004;23;92324;-78
2023/02/22 03:06:22;;;;;;;45.22;22.25;;;10.50;99.90;;;;;;6064859;23;91661;-78
2023/02/22 03:09:07;;;;;;;47.78;23.25;;;10.50;99.90;;;;;;6064078;23;95758;-78
2023/02/22 03:12:01;;;;;;;47.05;21.42;;;10.40;99.90;;;;;;6065364;23;92370;-78
2023/02/22 03:14:38;;;;;;;44.70;22.00;;;10.50;99.90;;;;;;6038829;23;94850;-78
2023/02/22 03:17:29;;;;;;;46.15;21.50;;;10.50;99.90;;;;;;6066195;23;92414;-78
2023/02/22 03:20:30;;;;;;;44.85;21.50;;;10.50;99.90;;;;;;6039345;23;95732;-78
2023/02/22 03:23:09;;;;;;;50.60;21.67;;;10.40;99.90;;;;;;6039064;23;94917;-78
2023/02/22 03:26:22;;;;;;;47.15;21.33;;;10.40;99.90;;;;;;6039584;23;92366;-78
2023/02/22 03:28:54;;;;;;;47.93;22.10;;;10.40;99.90;;;;;;6051691;23;92380;-78
2023/02/22 03:31:39;;;;;;;50.90;23.35;;;10.30;99.90;;;;;;6088125;23;95551;-78
2023/02/22 03:34:23;;;;;;;47.60;21.15;;;10.40;99.90;;;;;;6064241;23;95666;-78
2023/02/22 03:36:58;;;;;;;41.47;21.05;;;10.40;99.90;;;;;;6063901;23;92502;-78
2023/02/22 03:39:29;;;;;;;48.15;22.00;;;10.40;99.90;;;;;;6064376;23;92977;-78
2023/02/22 03:42:07;;;;;;;48.20;21.53;;;10.30;99.90;;;;;;6037940;23;98002;-79
2023/02/22 03:44:39;;;;;;;50.38;22.00;;;10.30;99.90;;;;;;6063418;23;97866;-78
2023/02/22 03:47:11;;;;;;;51.75;23.35;;;10.30;99.90;;;;;;6088637;23;92445;-79
2023/02/22 03:49:51;;;;;;;51.67;22.70;;;10.30;99.90;;;;;;6064063;23;92451;-78
2023/02/22 03:52:22;;;;;;;42.92;20.60;;;10.30;99.90;;;;;;6063953;23;95997;-79
2023/02/22 03:54:53;;;;;;;49.47;21.83;;;10.20;99.90;;;;;;6062729;23;95583;-78
2023/02/22 03:57:32;;;;;;;51.88;23.48;;;10.20;99.90;;;;;;6064122;23;92453;-78
2023/02/22 04:00:06;;;;;;;50.40;22.45;;;10.30;99.90;;;;;;6064511;23;91643;-78
2023/02/22 04:02:39;;;;;;;49.72;22.30;;;10.20;99.90;;;;;;6087461;23;92324;-79
2023/02/22 04:05:12;;;;;;;53.72;22.80;;;10.20;99.90;;;;;;6062607;23;95390;-78
2023/02/22 04:07:41;;;;;;;51.15;23.25;;;10.20;99.90;;;;;;6061790;23;94944;-78
2023/02/22 04:10:10;;;;;;;54.08;23.40;;;10.20;99.90;;;;;;6063188;23;92840;-78
2023/02/22 04:12:37;;;;;;;49.15;23.08;;;10.20;99.90;;;;;;6088044;23;95638;-78
2023/02/22 04:15:07;;;;;;;50.35;22.98;;;10.20;99.90;;;;;;6063324;23;95770;-78
2023/02/22 04:17:35;;;;;;;51.60;22.83;;;10.20;99.90;;;;;;6063216;23;92369;-79
2023/02/22 04:20:03;;;;;;;51.88;23.60;;;10.20;99.90;;;;;;6087485;23;92354;-78
2023/02/22 04:22:42;;;;;;;52.83;24.08;;;10.20;99.90;;;;;;6062235;23;95191;-78
2023/02/22 04:25:09;;;;;;;55.25;23.95;;;10.20;99.90;;;;;;6089208;23;94889;-78
2023/02/22 04:27:36;;;;;;;47.95;22.25;;;10.20;99.90;;;;;;6064824;23;92381;-78
2023/02/22 04:30:04;;;;;;;55.75;24.50;;;10.20;99.90;;;;;;6040672;23;92457;-78
2023/02/22 04:32:32;;;;;;;56.60;25.85;;;10.20;99.90;;;;;;6062666;23;96975;-78
2023/02/22 04:34:59;;;;;;;57.45;25.17;;;10.20;99.90;;;;;;6066398;23;95424;-78
2023/02/22 04:37:28;;;;;;;53.72;23.85;;;10.30;99.90;;;;;;6065107;23;92394;-78
2023/02/22 04:39:55;;;;;;;57.10;24.95;;;10.30;99.90;;;;;;6064584;23;92459;-78
2023/02/22 04:42:22;;;;;;;55.50;25.40;;;10.30;99.90;;;;;;6064827;23;95672;-78
2023/02/22 04:44:49;;;;;;;60.10;27.05;;;10.30;99.90;;;;;;6089080;23;95410;-78
2023/02/22 04:47:16;;;;;;;57.78;23.65;;;10.30;99.90;;;;;;6089706;23;92382;-78
2023/02/22 04:49:43;;;;;;;54.63;24.17;;;10.30;99.90;;;;;;6089722;23;91706;-78
2023/02/22 04:52:10;;;;;;;61.20;25.17;;;10.20;99.90;;;;;;6064626;23;95873;-78
2023/02/22 04:54:38;;;;;;;65.35;27.55;;;10.20;99.90;;;;;;6089474;23;95322;-78
2023/02/22 04:57:05;;;;;;;67.22;28.15;;;10.20;99.90;;;;;;6063171;23;94797;-78
2023/02/22 04:59:33;;;;;;;65.15;27.42;;;10.10;99.90;;;;;;6089275;23;92457;-78
2023/02/22 05:02:01;;;;;;;66.43;28.83;;;10.10;99.90;;;;;;6064235;23;94946;-79
2023/02/22 05:04:29;;;;;;;57.80;25.52;;;10.10;99.90;;;;;;6088988;23;95442;-79
2023/02/22 05:06:56;;;;;;;62.40;26.95;;;10.10;99.90;;;;;;6089160;23;92416;-78
2023/02/22 05:09:23;;;;;;;59.50;26.20;;;10.10;99.90;;;;;;6064870;23;92406;-78
2023/02/22 05:11:50;;;;;;;58.58;26.23;;;10.10;99.90;;;;;;6065050;23;94759;-78
2023/02/22 05:14:17;;;;;;;61.00;27.90;;;10.10;99.90;;;;;;6065023;23;93016;-78
2023/02/22 05:16:43;;;;;;;61.33;27.23;;;10.10;99.90;;;;;;6089632;23;92389;-78
2023/02/22 05:19:10;;;;;;;60.78;27.95;;;10.10;99.90;;;;;;6065157;23;92883;-78
2023/02/22 05:21:39;;;;;;;61.00;27.05;;;10.00;99.90;;;;;;6087714;23;95754;-78
2023/02/22 05:24:06;;;;;;;62.40;28.85;;;10.00;99.90;;;;;;6063483;23;109533;-78
2023/02/22 05:26:33;;;;;;;66.03;29.98;;;10.00;99.90;;;;;;6089544;23;92443;-78
2023/02/22 05:29:00;;;;;;;63.85;28.77;;;10.00;99.90;;;;;;6064946;23;92953;-78
2023/02/22 05:31:27;;;;;;;63.40;28.23;;;10.00;99.90;;;;;;6064775;23;95858;-78
2023/02/22 05:33:54;;;;;;;65.38;29.13;;;10.00;99.90;;;;;;6088721;23;93371;-78
2023/02/22 05:36:21;;;;;;;68.20;29.05;;;10.00;99.90;;;;;;6089330;23;92946;-78
2023/02/22 05:38:48;;;;;;;66.88;29.40;;;10.00;99.90;;;;;;6065584;23;91736;-78
2023/02/22 05:41:15;;;;;;;66.72;30.73;;;10.10;99.90;;;;;;6088797;23;93442;-79
2023/02/22 05:43:42;;;;;;;64.68;27.60;;;10.10;99.90;;;;;;6064359;23;95951;-78
2023/02/22 05:46:09;;;;;;;72.75;31.13;;;10.00;99.90;;;;;;6063184;23;94788;-78
2023/02/22 05:48:36;;;;;;;69.63;32.10;;;10.00;99.90;;;;;;6064643;23;92678;-78
2023/02/22 05:51:03;;;;;;;69.57;31.52;;;10.00;99.90;;;;;;6089310;23;95726;-78
2023/02/22 05:53:30;;;;;;;72.20;31.92;;;10.10;99.90;;;;;;6066143;23;92925;-78
2023/02/22 05:55:57;;;;;;;67.05;32.25;;;10.00;99.90;;;;;;6066580;23;92287;-79
2023/02/22 05:58:24;;;;;;;72.50;30.77;;;10.00;99.90;;;;;;6066419;23;92428;-78
2023/02/22 06:00:51;;;;;;;66.40;30.45;;;10.00;99.90;;;;;;6089292;23;93081;-78
2023/02/22 06:03:18;;;;;;;70.85;31.98;;;10.10;99.90;;;;;;6065159;23;93148;-78
2023/02/22 06:05:45;;;;;;;71.55;33.15;;;10.10;99.90;;;;;;6065117;23;92415;-78
2023/02/22 06:08:12;;;;;;;70.25;32.47;;;10.00;99.90;;;;;;6088753;23;92386;-78
2023/02/22 06:10:39;;;;;;;72.45;34.03;;;10.10;99.90;;;;;;6087164;23;103218;-78
2023/02/22 06:13:06;;;;;;;72.57;32.20;;;10.00;99.90;;;;;;6066091;23;95486;-79
2023/02/22 06:15:33;;;;;;;73.38;32.47;;;10.10;99.90;;;;;;6065396;23;92349;-78
2023/02/22 06:18:01;;;;;;;73.38;33.13;;;10.10;99.90;;;;;;6066595;23;92410;-78
2023/02/22 06:20:29;;;;;;;77.90;33.72;;;10.10;99.90;;;;;;6066014;23;93222;-79
2023/02/22 06:22:57;;;;;;;75.13;35.15;;;10.10;99.90;;;;;;6089231;23;93027;-78
2023/02/22 06:25:29;;;;;;;75.25;33.33;;;10.10;99.90;;;;;;6066076;23;92393;-78
2023/02/22 06:27:58;;;;;;;71.22;31.45;;;10.20;99.90;;;;;;6040914;23;92240;-78
2023/02/22 06:30:26;;;;;;;78.55;32.90;;;10.20;99.90;;;;;;6039713;23;95748;-79
2023/02/22 06:32:54;;;;;;;79.32;35.08;;;10.20;99.90;;;;;;6066394;23;93005;-79
2023/02/22 06:35:21;;;;;;;70.85;31.65;;;10.20;99.90;;;;;;6064762;23;94800;-79
2023/02/22 06:37:48;;;;;;;74.22;33.17;;;10.10;99.90;;;;;;6066256;23;92374;-78
2023/02/22 06:40:15;;;;;;;79.32;32.13;;;10.10;99.90;;;;;;6063909;23;96072;-79
2023/02/22 06:42:42;;;;;;;75.35;32.55;;;10.10;99.90;;;;;;6088185;23;93074;-78
2023/02/22 06:45:10;;;;;;;72.47;32.55;;;10.10;99.90;;;;;;6065771;23;92381;-78
2023/02/22 06:47:39;;;;;;;75.82;32.92;;;10.00;99.90;;;;;;6065909;23;92427;-78
2023/02/22 06:50:07;;;;;;;79.20;34.78;;;10.10;99.90;;;;;;6088232;23;93068;-78
2023/02/22 06:52:34;;;;;;;82.25;34.08;;;10.00;99.90;;;;;;6065943;23;93051;-78
2023/02/22 06:55:01;;;;;;;81.40;34.13;;;10.00;99.90;;;;;;6065943;23;92834;-78
2023/02/22 06:57:28;;;;;;;75.07;32.60;;;10.00;99.90;;;;;;6064086;23;92472;-78
2023/02/22 06:59:56;;;;;;;72.18;30.83;;;10.00;99.90;;;;;;6062465;23;95666;-78
2023/02/22 07:02:23;;;;;;;71.15;30.33;;;9.90;99.90;;;;;;6063310;23;98103;-78
2023/02/22 07:04:50;;;;;;;78.45;33.03;;;9.90;99.90;;;;;;6065912;23;92291;-78
2023/02/22 07:07:17;;;;;;;81.55;35.90;;;9.90;99.90;;;;;;6062969;23;101365;-78
2023/02/22 07:09:46;;;;;;;71.43;31.20;;;9.90;99.90;;;;;;6065670;23;93231;-78
2023/02/22 07:12:13;;;;;;;78.85;35.70;;;9.90;99.90;;;;;;6039416;23;95617;-78
2023/02/22 07:14:40;;;;;;;75.53;32.78;;;10.00;99.90;;;;;;6088767;23;92387;-78
2023/02/22 07:17:07;;;;;;;73.85;31.63;;;10.00;99.90;;;;;;6088732;23;91676;-78
2023/02/22 07:19:34;;;;;;;72.88;32.67;;;9.90;99.90;;;;;;6088104;23;93152;-78
2023/02/22 07:22:01;;;;;;;75.28;32.38;;;10.00;99.90;;;;;;6088069;23;93261;-78
2023/02/22 07:24:28;;;;;;;71.15;32.72;;;10.00;99.90;;;;;;6063767;23;94798;-78
2023/02/22 07:26:55;;;;;;;76.65;32.20;;;10.10;99.90;;;;;;6088234;23;93195;-78
2023/02/22 07:29:22;;;;;;;80.47;35.47;;;10.20;99.90;;;;;;6063409;23;93614;-78
2023/02/22 07:31:49;;;;;;;70.65;31.25;;;10.30;99.90;;;;;;6063588;23;92470;-78
2023/02/22 07:34:16;;;;;;;67.93;30.67;;;10.30;99.90;;;;;;6087788;23;98969;-78
2023/02/22 07:36:43;;;;;;;70.38;31.95;;;10.40;99.90;;;;;;6088089;23;92514;-78
2023/02/22 07:39:10;;;;;;;75.82;32.90;;;10.40;99.90;;;;;;6065027;23;93324;-78
2023/02/22 07:41:37;;;;;;;71.20;32.85;;;10.40;99.90;;;;;;6087594;23;96023;-78
2023/02/22 07:44:13;;;;;;;70.82;31.83;;;10.50;99.90;;;;;;6086173;23;92465;-78
2023/02/22 07:46:40;;;;;;;66.47;29.42;;;10.50;99.90;;;;;;6087804;23;92474;-78
2023/02/22 07:49:07;;;;;;;67.70;30.35;;;10.60;99.90;;;;;;6037280;23;98245;-78
2023/02/22 07:51:34;;;;;;;66.95;31.30;;;10.60;99.90;;;;;;6087659;23;97963;-78
2023/02/22 07:54:01;;;;;;;65.88;30.17;;;10.70;99.90;;;;;;6063582;23;92441;-78
2023/02/22 07:56:28;;;;;;;63.13;28.38;;;10.80;99.90;;;;;;6063698;23;93145;-78
2023/02/22 07:58:55;;;;;;;62.38;27.10;;;10.90;99.90;;;;;;6088493;23;99995;-78
2023/02/22 08:01:23;;;;;;;67.32;31.45;;;10.90;99.90;;;;;;6088654;23;93068;-78
2023/02/22 08:03:51;;;;;;;69.65;30.63;;;10.90;99.90;;;;;;6066400;23;92343;-78
2023/02/22 08:06:19;;;;;;;68.80;31.05;;;11.00;99.90;;;;;;6089021;23;91719;-78
2023/02/22 08:08:46;;;;;;;68.65;30.35;;;11.00;99.90;;;;;;6065657;23;93229;-78
2023/02/22 08:11:13;;;;;;;70.45;32.20;;;11.10;99.90;;;;;;6064786;23;93064;-78
2023/02/22 08:13:41;;;;;;;73.00;32.58;;;11.30;99.90;;;;;;6062952;23;94760;-78
2023/02/22 08:16:08;;;;;;;66.57;33.63;;;11.30;99.90;;;;;;6066482;23;92449;-78
2023/02/22 08:18:37;;;;;;;65.55;30.73;;;11.40;99.90;;;;;;6066142;23;93500;-78
2023/02/22 08:21:04;;;;;;;69.88;31.73;;;11.50;99.90;;;;;;6065924;23;93818;-78
2023/02/22 08:23:31;;;;;;;69.47;30.98;;;11.60;99.90;;;;;;6039817;23;92642;-78
2023/02/22 08:26:07;;;;;;;74.00;33.80;;;11.70;99.90;;;;;;6064671;23;95906;-78
2023/02/22 08:28:34;;;;;;;67.47;31.60;;;11.80;99.90;;;;;;6065830;23;93195;-78
2023/02/22 08:31:02;;;;;;;62.65;28.67;;;11.80;99.90;;;;;;6066538;23;95875;-78
2023/02/22 08:33:29;;;;;;;61.38;28.30;;;11.70;99.90;;;;;;6088699;23;92380;-78
2023/02/22 08:35:56;;;;;;;63.65;31.05;;;11.70;99.90;;;;;;6089224;23;92876;-78
2023/02/22 08:38:32;;;;;;;66.63;31.30;;;11.70;99.90;;;;;;6064521;23;95450;-78
2023/02/22 08:40:59;;;;;;;66.28;31.45;;;11.90;99.90;;;;;;6088824;23;95381;-78
2023/02/22 08:43:27;;;;;;;58.38;28.23;;;11.70;99.90;;;;;;6065762;23;92385;-78
2023/02/22 08:45:54;;;;;;;62.55;30.83;;;11.70;99.90;;;;;;6066327;23;92402;-78
2023/02/22 08:48:23;;;;;;;62.50;31.38;;;11.70;99.90;;;;;;6066041;23;93230;-78
2023/02/22 08:50:50;;;;;;;58.88;29.98;;;11.80;99.90;;;;;;6064057;23;96032;-78
2023/02/22 08:53:17;;;;;;;63.80;30.08;;;11.80;99.90;;;;;;6066098;23;92326;-78
2023/02/22 08:55:45;;;;;;;60.67;29.02;;;11.90;99.90;;;;;;6089242;23;91682;-78
2023/02/22 08:58:12;;;;;;;57.35;27.65;;;11.90;99.90;;;;;;6064871;23;93557;-78
2023/02/22 09:00:40;;;;;;;58.50;26.90;;;12.00;99.90;;;;;;6088537;23;95671;-78
2023/02/22 09:03:11;;;;;;;61.10;29.15;;;12.00;99.90;;;;;;6087173;23;94815;-79
2023/02/22 09:05:40;;;;;;;58.08;27.38;;;11.90;99.90;;;;;;6089058;23;92420;-79
2023/02/22 09:08:07;;;;;;;62.50;28.23;;;11.90;99.90;;;;;;6087920;23;94801;-79
2023/02/22 09:10:35;;;;;;;60.97;29.08;;;11.90;99.90;;;;;;6065977;23;93034;-78
2023/02/22 09:13:03;;;;;;;57.05;28.23;;;11.90;99.90;;;;;;6040174;23;93040;-78
2023/02/22 09:15:31;;;;;;;55.75;26.20;;;12.00;99.90;;;;;;6088534;23;92439;-78
2023/02/22 09:17:59;;;;;;;56.28;24.38;;;12.00;99.90;;;;;;6065913;23;93089;-78
2023/02/22 09:20:27;;;;;;;51.70;24.10;;;12.00;99.90;;;;;;6066458;23;92909;-78
2023/02/22 09:22:55;;;;;;;60.53;25.70;;;11.80;99.90;;;;;;6088462;23;92472;-78
2023/02/22 09:25:22;;;;;;;54.10;24.58;;;11.70;99.90;;;;;;6066280;23;92400;-78
2023/02/22 09:27:51;;;;;;;63.92;28.23;;;11.70;99.90;;;;;;6064251;23;95640;-79
2023/02/22 09:30:22;;;;;;;61.92;27.38;;;11.70;99.90;;;;;;6064193;23;95426;-79
2023/02/22 09:32:56;;;;;;;67.07;27.15;;;11.80;99.90;;;;;;6066040;23;92375;-78
2023/02/22 09:35:25;;;;;;;;;;;11.80;99.90;;;;;;6065155;23;92383;-78
2023/02/22 09:37:58;;;;;;;63.75;26.77;;;11.70;99.90;;;;;;6067771;23;93193;-78
2023/02/22 09:40:28;;;;;;;63.67;26.05;;;11.70;99.90;;;;;;6088869;23;95799;-78
2023/02/22 09:43:06;;;;;;;55.30;25.08;;;11.80;99.90;;;;;;6065712;23;92475;-79
2023/02/22 09:45:54;;;;;;;62.17;27.33;;;12.00;99.90;;;;;;6040577;23;92049;-79
2023/02/22 09:48:22;;;;;;;55.55;26.13;;;12.00;99.90;;;;;;6039981;23;94436;-78
2023/02/22 09:50:52;;;;;;;55.40;24.55;;;11.90;99.90;;;;;;6065698;23;93040;-79
2023/02/22 09:53:30;;;;;;;51.83;25.17;;;12.00;99.90;;;;;;6063394;23;95338;-79
2023/02/22 09:56:02;;;;;;;49.90;22.90;;;11.90;99.90;;;;;;6065714;23;92462;-79
2023/02/22 09:58:32;;;;;;;46.75;22.83;;;11.90;99.90;;;;;;6065835;23;93398;-79
2023/02/22 10:01:23;;;;;;;47.45;23.13;;;11.80;99.90;;;;;;6039113;23;95784;-79
2023/02/22 10:04:03;;;;;;;46.97;22.77;;;11.70;99.90;;;;;;6039717;23;92411;-79
2023/02/22 10:06:32;;;;;;;50.28;24.15;;;11.60;99.90;;;;;;6065820;23;92392;-79
2023/02/22 10:09:06;;;;;;;47.28;23.55;;;11.50;99.90;;;;;;6064770;23;102600;-79
2023/02/22 10:11:51;;;;;;;44.92;22.13;;;11.50;99.90;;;;;;6040000;23;94249;-79
2023/02/22 10:14:56;;;;;;;51.15;24.48;;;11.50;99.90;;;;;;6039933;23;92392;-78
2023/02/22 10:17:38;;;;;;;53.55;23.05;;;11.40;99.90;;;;;;6065916;23;92325;-79
2023/02/22 10:20:24;;;;;;;49.78;22.65;;;11.30;99.90;;;;;;6062161;23;98286;-79
2023/02/22 10:23:17;;;;;;;51.63;23.70;;;11.30;99.90;;;;;;6065180;23;95438;-79
2023/02/22 10:25:47;;;;;;;44.70;23.52;;;11.40;99.90;;;;;;6015320;23;92831;-79
2023/02/22 10:28:23;;;;;;;50.40;24.48;;;11.40;99.90;;;;;;6065972;23;92300;-79
2023/02/22 10:30:57;;;;;;;58.40;24.60;;;11.50;99.90;;;;;;6088518;23;95842;-79
2023/02/22 10:33:59;;;;;;;51.15;23.00;;;11.60;99.90;;;;;;6039669;23;95761;-79
2023/02/22 10:36:28;;;;;;;55.75;26.48;;;11.60;99.90;;;;;;6048351;23;92493;-79
2023/02/22 10:39:06;;;;;;;50.47;24.45;;;11.50;99.90;;;;;;6066115;23;91643;-79
2023/02/22 10:41:39;;;;;;;50.17;25.60;;;11.40;99.90;;;;;;6039587;23;95782;-79
2023/02/22 10:44:07;;;;;;;59.00;26.05;;;11.40;99.90;;;;;;6063714;23;97578;-79
2023/02/22 10:46:34;;;;;;;58.10;26.10;;;11.40;99.90;;;;;;6086969;23;94788;-78
2023/02/22 10:49:06;;;;;;;58.50;27.10;;;11.30;99.90;;;;;;6063398;23;100281;-78
2023/02/22 10:51:33;;;;;;;56.72;24.13;;;11.30;99.90;;;;;;6088146;23;93253;-79
2023/02/22 10:54:13;;;;;;;55.80;23.73;;;11.30;99.90;;;;;;6063177;23;95781;-79
2023/02/22 10:56:51;;;;;;;54.63;23.27;;;11.20;99.90;;;;;;6088351;23;92415;-78
2023/02/22 10:59:38;;;;;;;55.63;23.83;;;11.20;99.90;;;;;;6088696;23;93095;-78
2023/02/22 11:02:29;;;;;;;48.78;22.38;;;11.20;99.90;;;;;;6088164;23;93432;-79
2023/02/22 11:04:59;;;;;;;59.08;25.95;;;11.30;99.90;;;;;;6065947;23;91688;-79
2023/02/22 11:07:29;;;;;;;54.40;24.65;;;11.30;99.90;;;;;;6065749;23;92471;-79
2023/02/22 11:09:58;;;;;;;58.92;27.85;;;11.40;99.90;;;;;;6065194;23;92373;-79
2023/02/22 11:12:30;;;;;;;61.22;27.25;;;11.50;99.90;;;;;;6085881;23;96284;-79
2023/02/22 11:15:17;;;;;;;61.92;27.98;;;11.50;99.90;;;;;;6063863;23;95220;-79
2023/02/22 11:17:47;;;;;;;72.13;29.55;;;11.60;99.90;;;;;;6065552;23;92435;-79
2023/02/22 11:20:28;;;;;;;76.40;32.20;;;11.60;99.90;;;;;;6065785;23;92394;-79
2023/02/22 11:22:59;;;;;;;63.17;28.40;;;11.60;99.90;;;;;;6065056;23;93148;-79
2023/02/22 11:25:32;;;;;;;60.35;27.80;;;11.60;99.90;;;;;;6039565;23;95919;-79
2023/02/22 11:28:19;;;;;;;60.78;27.95;;;11.60;99.90;;;;;;6088448;23;92943;-79
2023/02/22 11:30:50;;;;;;;63.50;26.67;;;11.60;99.90;;;;;;6065886;23;91585;-79
2023/02/22 11:33:22;;;;;;;57.33;26.02;;;11.40;99.90;;;;;;6065128;23;93890;-79
2023/02/22 11:35:51;;;;;;;64.07;29.63;;;11.40;99.90;;;;;;6038757;23;95609;-79
2023/02/22 11:38:29;;;;;;;51.20;25.10;;;11.30;99.90;;;;;;6063989;23;95198;-79
2023/02/22 11:41:08;;;;;;;55.55;24.40;;;11.40;99.90;;;;;;6065224;23;92399;-79
2023/02/22 11:43:35;;;;;;;52.40;25.30;;;11.50;99.90;;;;;;6065312;23;92423;-79
2023/02/22 11:46:04;;;;;;;54.60;24.67;;;11.60;99.90;;;;;;6087670;23;95572;-79
2023/02/22 11:48:35;;;;;;;55.20;26.33;;;11.70;99.90;;;;;;6063309;23;92437;-79
2023/02/22 11:51:25;;;;;;;53.55;23.90;;;11.80;99.90;;;;;;6065268;23;92338;-79
2023/02/22 11:53:56;;;;;;;51.90;26.55;;;12.00;99.90;;;;;;6065025;23;93254;-79
2023/02/22 11:56:43;;;;;;;55.35;25.77;;;12.00;99.90;;;;;;6088404;23;91997;-79
2023/02/22 11:59:39;;;;;;;49.58;25.02;;;12.10;99.90;;;;;;6065181;23;92414;-79
2023/02/22 12:02:18;;;;;;;51.72;27.08;;;12.20;99.90;;;;;;6065401;23;92876;-79
2023/02/22 12:05:03;;;;;;;48.03;24.38;;;12.30;99.90;;;;;;6063956;23;96031;-79
2023/02/22 12:07:49;;;;;;;49.65;24.67;;;12.40;99.90;;;;;;6065177;23;95577;-79
2023/02/22 12:10:25;;;;;;;55.65;29.80;;;12.50;99.90;;;;;;6034151;23;92892;-79
2023/02/22 12:13:15;;;;;;;51.92;27.20;;;12.50;99.90;;;;;;6036250;23;92876;-79
2023/02/22 12:16:12;;;;;;;49.40;26.15;;;12.50;99.90;;;;;;6035683;23;92939;-79
2023/02/22 12:19:01;;;;;;;48.42;24.10;;;12.50;99.90;;;;;;5986600;23;96029;-79
2023/02/22 12:21:30;;;;;;;55.42;27.95;;;12.40;99.90;;;;;;6034215;23;93269;-79
2023/02/22 12:24:23;;;;;;;57.78;29.52;;;12.40;99.90;;;;;;6058420;23;91734;-79
2023/02/22 12:27:02;;;;;;;51.35;26.48;;;12.50;99.90;;;;;;6058239;23;93389;-79
2023/02/22 12:29:46;;;;;;;50.88;27.95;;;12.50;99.90;;;;;;6035700;23;93036;-79
2023/02/22 12:32:41;;;;;;;53.35;27.67;;;12.50;99.90;;;;;;6056758;23;94931;-79
2023/02/22 12:35:21;;;;;;;57.55;29.85;;;12.60;99.90;;;;;;6034302;23;92518;-79
2023/02/22 12:38:00;;;;;;;55.97;29.17;;;12.60;99.90;;;;;;6035412;23;93239;-79
2023/02/22 12:40:48;;;;;;;52.47;28.05;;;12.50;99.90;;;;;;6034280;23;95575;-79
2023/02/22 12:43:30;;;;;;;51.38;27.73;;;12.60;99.90;;;;;;6010674;23;92532;-79
2023/02/22 12:46:04;;;;;;;51.95;28.05;;;12.70;99.90;;;;;;6059811;23;92733;-79
2023/02/22 12:48:42;;;;;;;47.38;25.52;;;12.70;99.90;;;;;;6059459;23;96252;-79
2023/02/22 12:51:41;;;;;;;47.95;26.73;;;12.80;99.90;;;;;;6037378;23;92965;-79
2023/02/22 12:54:11;;;;;;;49.17;28.40;;;12.90;99.90;;;;;;6036923;23;92797;-79
2023/02/22 12:56:49;;;;;;;48.35;26.90;;;12.90;99.90;;;;;;6011799;23;92424;-79